Time;durP1;ratioP1;P1;durP2;ratioP2;P2;SDS_P1;SDS_P2;PMS_P1;PMS_P2;Temp;Humidity;BMP_temperature;BMP_pressure;BME280_temperature;BME280_humidity;BME280_pressure;Samples;Min_cycle;Max_cycle;Signal;HPM_P1;HPM_P2
2022/02/06 00:00:52;;;;;;;7.22;3.60;;;;;;;2.93;64.60;100143.17;1679281;84;20993;-67
2022/02/06 00:03:17;;;;;;;8.45;4.10;;;;;;;2.94;64.57;100147.93;1666210;86;20969;-68
2022/02/06 00:05:45;;;;;;;6.25;4.00;;;;;;;2.92;64.59;100147.33;1666112;86;21115;-67
2022/02/06 00:08:12;;;;;;;8.73;4.45;;;;;;;2.93;64.58;100148.94;1663679;86;21137;-67
2022/02/06 00:10:40;;;;;;;8.48;4.30;;;;;;;2.91;64.50;100139.93;1666229;86;21040;-68
2022/02/06 00:13:06;;;;;;;9.10;4.67;;;;;;;2.93;64.49;100151.09;1666454;86;21518;-68
2022/02/06 00:15:34;;;;;;;9.68;4.67;;;;;;;2.91;64.48;100149.16;1666300;84;21039;-67
2022/02/06 00:18:01;;;;;;;8.40;4.72;;;;;;;2.90;64.48;100148.08;1666006;84;21467;-67
2022/02/06 00:20:37;;;;;;;8.43;4.72;;;;;;;2.86;64.47;100141.08;1666070;85;21527;-68
2022/02/06 00:23:05;;;;;;;10.25;4.95;;;;;;;2.85;64.56;100138.67;1666659;86;21535;-67
2022/02/06 00:25:37;;;;;;;8.33;4.70;;;;;;;2.84;64.63;100140.50;1665909;85;21171;-66
2022/02/06 00:28:23;;;;;;;8.60;4.50;;;;;;;2.79;64.66;100137.69;1719843;82;21568;-68
2022/02/06 00:33:36;;;;;;;9.70;5.17;;;;;;;2.76;64.80;100141.59;1720296;82;21016;-67
2022/02/06 00:36:00;;;;;;;8.30;4.70;;;;;;;2.76;64.88;100136.31;1719814;82;21483;-66
2022/02/06 00:43:31;;;;;;;11.48;4.72;;;;;;;2.74;65.01;100141.51;1719959;82;21087;-67
2022/02/06 00:45:58;;;;;;;9.03;4.90;;;;;;;2.74;65.09;100137.03;1720248;83;20981;-68
2022/02/06 00:48:27;;;;;;;10.55;5.10;;;;;;;2.73;65.15;100139.88;1720242;83;21051;-69
2022/02/06 00:51:06;;;;;;;11.12;5.62;;;;;;;2.76;65.17;100142.08;1719962;83;21952;-67
2022/02/06 00:53:27;;;;;;;9.95;4.87;;;;;;;2.77;65.15;100132.65;1720053;83;21487;-68
2022/02/06 00:55:54;;;;;;;10.50;5.15;;;;;;;2.78;65.13;100132.13;1719915;82;21637;-65
2022/02/06 00:58:20;;;;;;;10.15;5.60;;;;;;;2.77;65.13;100126.57;1720343;83;21566;-66
2022/02/06 01:00:48;;;;;;;9.95;5.28;;;;;;;2.77;65.16;100130.53;1720080;82;20973;-67
2022/02/06 01:03:16;;;;;;;9.60;5.35;;;;;;;2.80;65.20;100125.63;1720192;83;21552;-67
2022/02/06 01:05:42;;;;;;;10.82;5.33;;;;;;;2.80;65.19;100126.95;1720006;83;21491;-67
2022/02/06 01:08:10;;;;;;;11.08;5.37;;;;;;;2.82;65.21;100137.27;1719926;82;21072;-67
2022/02/06 01:10:37;;;;;;;11.05;5.85;;;;;;;2.82;65.17;100129.35;1720033;82;21115;-67
2022/02/06 01:14:13;;;;;;;12.30;5.15;;;;;;;2.83;65.18;100132.30;1719984;83;21005;-67
2022/02/06 01:15:47;;;;;;;8.35;5.33;;;;;;;2.82;65.20;100131.47;1701658;82;22007;-67
2022/02/06 01:30:00;;;;;;;9.73;5.03;;;;;;;3.21;64.63;100119.45;1778757;79;22495;-65
2022/02/06 01:32:35;;;;;;;9.45;5.30;;;;;;;3.12;64.46;100123.39;1822506;78;20923;-66
2022/02/06 01:35:01;;;;;;;7.95;4.40;;;;;;;3.07;64.49;100129.86;1820927;78;21512;-67
2022/02/06 01:37:34;;;;;;;10.13;4.70;;;;;;;3.03;64.58;100142.16;1814920;78;21545;-67
2022/02/06 01:42:42;;;;;;;8.83;4.80;;;;;;;2.95;64.74;100145.06;1696650;84;21155;-66
2022/02/06 02:01:52;;;;;;;9.03;4.90;;;;;;;2.84;65.41;100138.38;1775853;80;20980;-67
2022/02/06 02:06:56;;;;;;;8.50;4.70;;;;;;;2.82;65.53;100135.95;1753020;81;20996;-67
2022/02/06 02:14:30;;;;;;;11.25;5.05;;;;;;;2.80;65.79;100137.50;1721100;83;21988;-67
2022/02/06 02:24:58;;;;;;;8.43;4.80;;;;;;;2.75;66.00;100145.75;1726216;83;21180;-67
2022/02/06 02:27:06;;;;;;;7.65;4.15;;;;;;;2.75;66.04;100141.80;1748787;81;21570;-67
2022/02/06 02:43:18;;;;;;;7.55;4.65;;;;;;;2.78;66.37;100139.53;1752201;81;21186;-66
2022/02/06 02:48:12;;;;;;;7.75;4.97;;;;;;;2.76;66.55;100154.78;1752049;81;21015;-66
2022/02/06 02:50:43;;;;;;;10.68;5.45;;;;;;;2.75;66.60;100150.50;1725926;83;20995;-66
2022/02/06 02:53:22;;;;;;;8.73;4.62;;;;;;;2.76;66.65;100155.27;1751602;82;21539;-66
2022/02/06 03:03:15;;;;;;;11.10;5.85;;;;;;;2.78;66.89;100154.55;1752043;81;21003;-66
2022/02/06 03:05:37;;;;;;;10.80;5.55;;;;;;;2.81;66.95;100158.87;1725354;83;22355;-67
2022/02/06 03:08:06;;;;;;;10.63;5.60;;;;;;;2.84;66.96;100158.16;1751911;82;21086;-66
2022/02/06 03:10:34;;;;;;;9.05;5.25;;;;;;;2.82;67.00;100152.58;1734140;81;21067;-66
2022/02/06 03:13:04;;;;;;;9.68;5.22;;;;;;;2.83;67.03;100162.64;1755404;81;21023;-67
2022/02/06 03:15:42;;;;;;;8.50;5.35;;;;;;;2.84;67.07;100161.61;1783391;80;20979;-67
2022/02/06 03:18:03;;;;;;;9.07;5.33;;;;;;;2.85;67.10;100150.02;1781058;80;22005;-66
2022/02/06 03:20:31;;;;;;;9.35;5.40;;;;;;;2.83;67.15;100154.73;1763798;80;21627;-66
2022/02/06 03:23:02;;;;;;;8.05;4.78;;;;;;;2.84;67.15;100148.42;1751991;82;21116;-66
2022/02/06 03:25:26;;;;;;;8.65;5.10;;;;;;;2.81;67.16;100147.53;1752210;81;21000;-67
2022/02/06 03:27:53;;;;;;;8.45;5.25;;;;;;;2.80;67.24;100149.88;1751981;80;21142;-67
2022/02/06 03:30:20;;;;;;;10.85;5.97;;;;;;;2.77;67.36;100146.35;1759150;80;21528;-66
2022/02/06 03:32:50;;;;;;;7.90;5.33;;;;;;;2.79;67.36;100162.75;1783100;80;21015;-67
2022/02/06 03:35:16;;;;;;;10.60;5.10;;;;;;;2.77;67.42;100147.16;1783325;80;20956;-66
2022/02/06 03:37:43;;;;;;;9.70;5.70;;;;;;;2.77;67.45;100150.31;1783223;80;21012;-66
2022/02/06 03:40:20;;;;;;;9.20;5.50;;;;;;;2.75;67.53;100153.14;1782719;80;20960;-67
2022/02/06 03:42:53;;;;;;;9.58;5.53;;;;;;;2.76;67.50;100152.14;1781536;80;21169;-66
2022/02/06 03:45:11;;;;;;;8.18;5.12;;;;;;;2.75;67.50;100147.06;1778920;80;20984;-67
2022/02/06 03:47:51;;;;;;;8.98;5.20;;;;;;;2.72;67.54;100150.94;1782472;80;21042;-66
2022/02/06 03:50:16;;;;;;;8.43;5.25;;;;;;;2.68;67.70;100152.91;1752602;80;21039;-66
2022/02/06 03:52:50;;;;;;;8.43;5.30;;;;;;;2.70;67.74;100145.09;1751941;81;20976;-67
2022/02/06 03:55:21;;;;;;;8.28;5.25;;;;;;;2.71;67.74;100144.57;1752623;80;21512;-67
2022/02/06 03:57:50;;;;;;;9.33;5.35;;;;;;;2.70;67.79;100145.09;1751729;82;21098;-67
2022/02/06 04:00:19;;;;;;;9.58;5.83;;;;;;;2.71;67.84;100157.76;1752188;81;20972;-67
2022/02/06 04:02:47;;;;;;;9.75;5.80;;;;;;;2.70;67.88;100141.62;1752009;81;21102;-66
2022/02/06 04:05:14;;;;;;;8.95;5.80;;;;;;;2.70;68.01;100147.72;1752205;81;21008;-67
2022/02/06 04:07:42;;;;;;;10.15;6.10;;;;;;;2.70;68.09;100165.34;1751928;82;21668;-67
2022/02/06 04:10:12;;;;;;;11.22;6.12;;;;;;;2.70;68.11;100160.91;1773373;80;21447;-67
2022/02/06 04:12:41;;;;;;;9.28;6.22;;;;;;;2.72;68.14;100165.95;1783060;80;21055;-67
2022/02/06 04:15:17;;;;;;;10.20;5.83;;;;;;;2.71;68.14;100158.56;1783050;80;20963;-67
2022/02/06 04:17:46;;;;;;;10.25;6.20;;;;;;;2.73;68.12;100162.28;1781796;80;21533;-67
2022/02/06 04:20:07;;;;;;;9.78;6.05;;;;;;;2.76;68.10;100159.22;1781506;80;21515;-67
2022/02/06 04:22:33;;;;;;;11.33;5.60;;;;;;;2.78;68.07;100157.19;1782984;80;21015;-67
2022/02/06 04:25:00;;;;;;;9.43;5.83;;;;;;;2.78;68.07;100159.83;1783292;80;20972;-67
2022/02/06 04:27:29;;;;;;;9.10;6.00;;;;;;;2.78;68.02;100160.62;1783237;80;21151;-67
2022/02/06 04:29:57;;;;;;;10.48;6.58;;;;;;;2.79;68.02;100162.75;1783051;80;21024;-67
2022/02/06 04:32:26;;;;;;;10.30;6.83;;;;;;;2.78;68.02;100167.22;1782935;80;21999;-67
2022/02/06 04:34:54;;;;;;;10.85;5.90;;;;;;;2.77;68.04;100174.05;1783242;80;21165;-68
2022/02/06 05:14:58;;;;;;;10.18;6.00;;;;;;;2.72;68.55;100196.28;1752156;81;21023;-67
2022/02/06 05:28:22;;;;;;;9.63;5.12;;;;;;;2.76;68.50;100209.33;1782960;80;21618;-66
2022/02/06 05:31:31;;;;;;;9.93;5.67;;;;;;;2.77;68.47;100204.38;1778847;80;21011;-66
2022/02/06 05:33:02;;;;;;;10.08;6.10;;;;;;;2.77;68.44;100204.38;1757461;80;21027;-66
2022/02/06 05:35:34;;;;;;;9.50;5.70;;;;;;;2.78;68.44;100212.57;1782820;80;20933;-66
2022/02/06 05:38:00;;;;;;;10.58;6.30;;;;;;;2.78;68.43;100209.42;1782773;80;21411;-67
2022/02/06 05:40:27;;;;;;;9.60;6.28;;;;;;;2.80;68.41;100215.30;1783046;80;20964;-66
2022/02/06 05:42:53;;;;;;;9.78;5.70;;;;;;;2.81;68.38;100202.91;1782880;80;21000;-68
2022/02/06 05:45:20;;;;;;;11.00;6.22;;;;;;;2.84;68.38;100217.52;1783054;80;21047;-67
2022/02/06 05:47:50;;;;;;;12.98;6.97;;;;;;;2.85;68.29;100220.44;1783014;80;21027;-68
2022/02/06 05:50:18;;;;;;;11.53;6.95;;;;;;;2.86;68.28;100222.84;1783152;80;21520;-67
2022/02/06 05:52:45;;;;;;;11.95;6.22;;;;;;;2.89;68.26;100225.58;1782895;80;21008;-67
2022/02/06 05:55:12;;;;;;;12.03;7.15;;;;;;;2.88;68.23;100225.28;1783240;80;20968;-67
2022/02/06 05:57:41;;;;;;;12.37;6.80;;;;;;;2.88;68.21;100216.05;1782975;80;21561;-67
2022/02/06 06:00:09;;;;;;;13.15;7.08;;;;;;;2.90;68.15;100224.58;1783130;80;21435;-67
2022/02/06 06:02:39;;;;;;;11.57;6.80;;;;;;;2.90;68.11;100225.89;1782972;80;21100;-67
2022/02/06 06:05:06;;;;;;;9.38;6.10;;;;;;;2.92;68.11;100224.63;1783079;80;21035;-67
2022/02/06 06:07:35;;;;;;;10.05;6.25;;;;;;;2.92;68.09;100227.27;1758450;80;21054;-67
2022/02/06 06:10:03;;;;;;;11.03;6.83;;;;;;;2.95;68.02;100236.08;1698679;83;21612;-67
2022/02/06 06:12:29;;;;;;;10.80;6.75;;;;;;;2.98;67.97;100233.53;1752003;82;21055;-67
2022/02/06 06:14:56;;;;;;;12.25;6.72;;;;;;;2.95;67.89;100232.12;1725614;83;21518;-67
2022/02/06 06:17:23;;;;;;;10.68;6.78;;;;;;;2.94;67.94;100233.16;1751965;82;21043;-67
2022/02/06 06:19:49;;;;;;;12.25;7.20;;;;;;;2.96;67.94;100232.44;1725694;83;21023;-67
2022/02/06 06:22:19;;;;;;;10.20;6.70;;;;;;;2.98;67.93;100231.69;1752153;82;21095;-67
2022/02/06 06:24:51;;;;;;;11.08;7.00;;;;;;;2.99;67.90;100239.09;1698705;83;21530;-67
2022/02/06 06:27:14;;;;;;;10.00;6.53;;;;;;;3.00;67.85;100238.09;1751236;82;21560;-67
2022/02/06 06:29:41;;;;;;;11.25;6.90;;;;;;;3.01;67.83;100239.18;1725383;83;21015;-68
2022/02/06 06:32:09;;;;;;;9.95;6.75;;;;;;;3.02;67.75;100232.06;1752245;82;20996;-67
2022/02/06 06:34:37;;;;;;;10.65;7.17;;;;;;;3.05;67.74;100242.20;1725497;83;21556;-68
2022/02/06 06:37:04;;;;;;;10.18;7.25;;;;;;;3.01;67.72;100234.42;1752157;82;21593;-67
2022/02/06 06:39:41;;;;;;;10.23;7.05;;;;;;;3.02;67.73;100234.19;1725422;83;21153;-67
2022/02/06 06:42:06;;;;;;;9.98;6.65;;;;;;;3.04;67.67;100233.99;1751662;82;20992;-67
2022/02/06 06:44:33;;;;;;;11.97;6.50;;;;;;;3.02;67.69;100231.55;1725691;83;21458;-67
2022/02/06 06:47:00;;;;;;;11.45;7.45;;;;;;;3.04;67.68;100229.52;1752122;82;20984;-68
2022/02/06 06:49:26;;;;;;;9.65;6.90;;;;;;;3.06;67.63;100221.41;1725445;83;21054;-67
2022/02/06 06:51:55;;;;;;;12.78;7.92;;;;;;;3.08;67.46;100233.84;1752334;82;21131;-67
2022/02/06 06:54:23;;;;;;;13.38;7.33;;;;;;;3.11;67.43;100226.83;1725411;83;21153;-67
2022/02/06 06:57:00;;;;;;;11.90;7.37;;;;;;;3.12;67.38;100224.47;1752091;81;20980;-67
2022/02/06 06:59:30;;;;;;;12.58;7.60;;;;;;;3.13;67.30;100226.63;1724114;83;21213;-67
2022/02/06 07:02:17;;;;;;;10.38;7.55;;;;;;;3.15;67.13;100235.11;1751836;82;21007;-67
2022/02/06 07:04:23;;;;;;;12.05;7.83;;;;;;;3.16;67.05;100234.08;1722917;81;21154;-67
2022/02/06 07:06:49;;;;;;;10.65;7.58;;;;;;;3.14;66.97;100228.23;1751010;82;21056;-68
2022/02/06 07:09:16;;;;;;;12.13;7.80;;;;;;;3.18;66.97;100218.85;1755499;81;21016;-67
2022/02/06 07:11:42;;;;;;;11.73;7.95;;;;;;;3.17;66.82;100218.56;1751074;81;20968;-67
2022/02/06 07:14:09;;;;;;;11.73;7.42;;;;;;;3.21;66.82;100225.02;1755379;81;20944;-67
2022/02/06 07:16:36;;;;;;;12.25;7.62;;;;;;;3.23;66.73;100229.06;1750555;82;21631;-67
2022/02/06 07:19:04;;;;;;;11.60;8.00;;;;;;;3.28;66.73;100233.68;1727147;81;21058;-68
2022/02/06 07:21:35;;;;;;;11.43;7.50;;;;;;;3.33;66.57;100235.69;1752317;82;21644;-68
2022/02/06 07:24:01;;;;;;;11.68;7.47;;;;;;;3.41;66.50;100234.88;1725643;83;21002;-67
2022/02/06 07:26:27;;;;;;;12.03;7.20;;;;;;;3.45;66.24;100234.73;1751876;81;20996;-67
2022/02/06 07:28:59;;;;;;;11.20;7.45;;;;;;;3.49;66.06;100231.97;1725337;83;21526;-67
2022/02/06 07:31:25;;;;;;;12.10;7.47;;;;;;;3.50;65.88;100232.78;1751999;81;21031;-67
2022/02/06 07:33:53;;;;;;;10.85;7.17;;;;;;;3.51;65.74;100231.22;1725561;83;20950;-68
2022/02/06 07:36:23;;;;;;;11.33;7.47;;;;;;;3.53;65.60;100225.74;1776879;80;21047;-68
2022/02/06 07:38:50;;;;;;;11.03;6.83;;;;;;;3.60;65.47;100228.31;1755638;81;21011;-71
2022/02/06 07:41:16;;;;;;;10.75;6.95;;;;;;;3.64;65.39;100218.40;1740032;82;21521;-68
2022/02/06 07:43:43;;;;;;;12.13;6.92;;;;;;;3.67;64.92;100231.69;1736439;82;21099;-68
2022/02/06 07:46:11;;;;;;;11.33;7.10;;;;;;;3.69;64.93;100229.12;1736865;82;20972;-68
2022/02/06 07:48:40;;;;;;;10.95;6.62;;;;;;;3.71;64.70;100226.25;1736778;82;20963;-67
2022/02/06 07:51:07;;;;;;;9.08;6.67;;;;;;;3.69;64.41;100217.24;1736858;82;20971;-68
2022/02/06 07:53:34;;;;;;;11.50;6.85;;;;;;;3.79;64.48;100231.78;1736746;82;21317;-66
2022/02/06 07:56:00;;;;;;;13.03;7.03;;;;;;;3.80;64.20;100226.78;1736682;82;21509;-67
2022/02/06 07:58:26;;;;;;;11.75;7.00;;;;;;;3.79;64.18;100214.09;1736713;82;21542;-67
2022/02/06 08:00:53;;;;;;;11.08;6.50;;;;;;;3.85;64.08;100218.50;1736950;82;21087;-67
2022/02/06 08:03:19;;;;;;;10.93;6.80;;;;;;;3.90;63.94;100227.88;1736620;81;21054;-68
2022/02/06 08:05:46;;;;;;;11.48;6.22;;;;;;;3.92;63.66;100230.31;1736767;82;21032;-68
2022/02/06 08:08:14;;;;;;;9.95;6.17;;;;;;;3.94;63.56;100217.67;1736786;82;21141;-68
2022/02/06 08:10:41;;;;;;;11.30;6.80;;;;;;;3.95;63.45;100217.46;1736798;82;21066;-67
2022/02/06 08:13:21;;;;;;;10.40;6.62;;;;;;;4.02;63.42;100230.59;1736594;82;20997;-67
2022/02/06 08:15:39;;;;;;;12.58;7.05;;;;;;;4.04;63.18;100219.79;1750627;81;20979;-67
2022/02/06 08:18:06;;;;;;;13.48;7.05;;;;;;;4.05;62.88;100225.36;1725519;83;21534;-67
2022/02/06 08:20:34;;;;;;;8.33;6.35;;;;;;;4.06;62.84;100226.99;1752170;82;20943;-68
2022/02/06 08:23:00;;;;;;;10.60;6.58;;;;;;;4.03;62.71;100222.95;1725495;83;21012;-67
2022/02/06 08:25:28;;;;;;;10.30;6.17;;;;;;;4.04;62.75;100219.27;1752092;81;21065;-67
2022/02/06 08:27:54;;;;;;;9.85;6.33;;;;;;;4.07;62.68;100220.67;1725419;83;21066;-67
2022/02/06 08:30:21;;;;;;;10.40;6.10;;;;;;;4.05;62.56;100222.23;1752362;81;21497;-67
2022/02/06 08:32:48;;;;;;;12.68;5.65;;;;;;;4.10;62.39;100232.12;1725405;83;21514;-68
2022/02/06 08:35:14;;;;;;;9.20;5.35;;;;;;;4.10;62.28;100240.85;1752325;81;21545;-67
2022/02/06 08:37:41;;;;;;;9.08;5.33;;;;;;;4.16;62.24;100221.98;1725437;83;22293;-68
2022/02/06 08:40:15;;;;;;;10.28;6.10;;;;;;;4.16;61.83;100218.02;1752134;81;21427;-67
2022/02/06 08:42:41;;;;;;;10.55;6.17;;;;;;;4.20;61.58;100212.57;1725607;83;21122;-67
2022/02/06 08:45:11;;;;;;;10.63;5.97;;;;;;;4.22;61.44;100225.86;1752064;82;20944;-67
2022/02/06 08:47:36;;;;;;;10.68;5.80;;;;;;;4.26;61.35;100232.83;1725389;83;21220;-67
2022/02/06 08:50:04;;;;;;;12.70;6.30;;;;;;;4.31;61.19;100228.19;1752037;82;21103;-68
2022/02/06 08:52:31;;;;;;;10.78;6.35;;;;;;;4.34;60.86;100225.09;1725716;83;21026;-66
2022/02/06 08:54:57;;;;;;;14.30;6.25;;;;;;;4.34;60.70;100240.96;1724645;82;21229;-66
2022/02/06 08:57:27;;;;;;;10.50;5.80;;;;;;;4.36;60.76;100227.81;1725743;83;21046;-67
2022/02/06 08:59:56;;;;;;;9.85;5.40;;;;;;;4.41;60.47;100227.97;1752074;82;21103;-66
2022/02/06 09:02:24;;;;;;;8.10;5.22;;;;;;;4.47;59.96;100226.23;1736775;81;21074;-66
2022/02/06 09:04:51;;;;;;;9.23;5.08;;;;;;;4.50;59.79;100227.63;1755555;81;21051;-67
2022/02/06 09:07:19;;;;;;;9.28;5.35;;;;;;;4.49;59.41;100215.45;1755773;81;21027;-67
2022/02/06 09:09:49;;;;;;;9.18;5.58;;;;;;;4.52;59.49;100228.23;1755453;81;21046;-67
2022/02/06 09:12:17;;;;;;;9.45;5.22;;;;;;;4.56;59.30;100236.00;1783219;80;21016;-68
2022/02/06 09:14:47;;;;;;;11.18;5.87;;;;;;;4.55;58.99;100227.78;1782956;80;20988;-68
2022/02/06 09:17:13;;;;;;;9.90;5.55;;;;;;;4.56;59.06;100218.28;1783252;80;21035;-68
2022/02/06 09:19:41;;;;;;;10.53;5.15;;;;;;;4.61;58.93;100208.37;1783243;80;21419;-68
2022/02/06 09:22:11;;;;;;;10.10;5.75;;;;;;;4.68;58.71;100209.87;1782973;80;20924;-68
2022/02/06 09:24:38;;;;;;;9.00;5.25;;;;;;;4.77;58.55;100209.53;1782951;80;20957;-68
2022/02/06 09:27:06;;;;;;;10.78;5.22;;;;;;;4.77;58.06;100211.69;1783038;80;21035;-67
2022/02/06 09:29:33;;;;;;;11.15;5.40;;;;;;;4.77;57.69;100206.89;1782943;80;20944;-67
2022/02/06 09:37:10;;;;;;;9.80;5.40;;;;;;;4.90;57.49;100190.31;1783410;80;21009;-67
2022/02/06 09:39:42;;;;;;;11.43;6.15;;;;;;;5.00;57.17;100195.53;1782937;80;21652;-67
2022/02/06 09:42:08;;;;;;;11.97;6.60;;;;;;;5.10;57.20;100178.56;1782111;80;21411;-67
2022/02/06 09:44:35;;;;;;;11.78;6.92;;;;;;;5.21;56.89;100184.91;1782934;80;21116;-67
2022/02/06 09:47:03;;;;;;;11.43;5.90;;;;;;;5.25;56.49;100177.59;1783047;80;20938;-67
2022/02/06 09:49:31;;;;;;;10.18;5.87;;;;;;;5.31;56.53;100176.67;1782939;80;21471;-67
2022/02/06 09:51:58;;;;;;;10.95;5.72;;;;;;;5.35;56.30;100167.22;1783319;80;21087;-66
2022/02/06 09:54:25;;;;;;;9.98;5.40;;;;;;;5.38;55.53;100166.76;1783218;80;20991;-66
2022/02/06 09:56:55;;;;;;;8.50;5.25;;;;;;;5.35;55.27;100171.19;1783353;80;21171;-66
2022/02/06 09:59:23;;;;;;;9.28;5.30;;;;;;;5.37;55.76;100170.98;1783073;80;21031;-67
2022/02/06 10:01:55;;;;;;;9.38;5.20;;;;;;;5.47;55.98;100169.87;1761103;80;21133;-67
2022/02/06 10:04:26;;;;;;;8.55;5.03;;;;;;;5.59;55.91;100172.48;1751931;82;21086;-67
2022/02/06 10:07:01;;;;;;;11.40;6.15;;;;;;;5.67;55.83;100171.34;1751649;81;21119;-67
2022/02/06 10:09:43;;;;;;;9.80;5.47;;;;;;;5.72;55.53;100174.08;1752178;82;20924;-67
2022/02/06 10:12:10;;;;;;;10.00;5.62;;;;;;;5.72;55.61;100162.95;1751302;80;21035;-67
2022/02/06 10:14:36;;;;;;;10.28;5.72;;;;;;;5.74;55.39;100160.88;1780158;80;21031;-68
2022/02/06 10:17:03;;;;;;;8.73;5.58;;;;;;;5.73;55.39;100156.63;1783322;80;21019;-67
2022/02/06 10:19:31;;;;;;;9.68;5.58;;;;;;;5.77;55.31;100150.34;1783127;80;21494;-67
2022/02/06 10:21:59;;;;;;;9.55;5.40;;;;;;;5.86;54.96;100143.11;1781076;80;21137;-67
2022/02/06 10:24:33;;;;;;;10.08;5.83;;;;;;;5.91;54.85;100143.72;1728502;82;21055;-67
2022/02/06 10:29:50;;;;;;;8.63;5.03;;;;;;;5.99;54.34;100138.58;1751775;82;20433;-68
2022/02/06 10:32:16;;;;;;;11.15;5.53;;;;;;;6.00;54.23;100136.23;1751255;82;20996;-67
2022/02/06 10:34:43;;;;;;;8.83;4.80;;;;;;;6.06;54.14;100129.46;1752031;80;21839;-67
2022/02/06 10:37:20;;;;;;;9.85;4.90;;;;;;;6.07;53.38;100136.36;1752066;82;20964;-66
2022/02/06 10:40:05;;;;;;;8.15;4.85;;;;;;;5.98;52.98;100140.95;1725608;83;21505;-67
2022/02/06 10:42:41;;;;;;;9.50;5.20;;;;;;;5.85;53.32;100140.67;1752134;82;21030;-67
2022/02/06 10:45:26;;;;;;;8.98;4.70;;;;;;;5.83;53.42;100139.61;1752414;82;21406;-67
2022/02/06 10:47:55;;;;;;;9.63;4.95;;;;;;;5.79;53.06;100135.82;1752093;81;21174;-67
2022/02/06 10:50:31;;;;;;;8.00;4.62;;;;;;;5.71;52.94;100134.85;1752044;82;20999;-66
2022/02/06 10:53:08;;;;;;;10.88;5.03;;;;;;;5.69;53.11;100128.97;1752016;82;20999;-65
2022/02/06 10:55:58;;;;;;;10.20;5.08;;;;;;;5.76;53.33;100122.20;1752475;81;21075;-67
2022/02/06 10:58:31;;;;;;;8.23;4.78;;;;;;;5.89;52.98;100116.66;1752085;82;20996;-66
2022/02/06 11:01:02;;;;;;;9.78;5.42;;;;;;;5.94;52.94;100112.80;1752421;80;21816;-68
2022/02/06 11:03:35;;;;;;;9.03;4.78;;;;;;;5.97;52.51;100115.50;1725529;83;20924;-67
2022/02/06 11:06:08;;;;;;;10.35;5.37;;;;;;;5.97;52.47;100112.84;1727291;82;21000;-67
2022/02/06 11:08:37;;;;;;;8.85;4.75;;;;;;;5.99;52.40;100112.90;1755673;81;20979;-67
2022/02/06 11:11:09;;;;;;;8.98;4.92;;;;;;;6.11;52.11;100106.20;1755320;80;21043;-67
2022/02/06 11:13:36;;;;;;;10.35;5.00;;;;;;;6.17;51.80;100111.87;1755577;81;21181;-67
2022/02/06 11:16:15;;;;;;;10.15;4.60;;;;;;;6.15;51.61;100107.33;1755776;81;21012;-67
2022/02/06 11:18:55;;;;;;;8.93;4.75;;;;;;;6.17;51.75;100109.75;1755309;81;20988;-67
2022/02/06 11:21:22;;;;;;;8.00;4.37;;;;;;;6.31;51.78;100107.88;1755506;81;21000;-67
2022/02/06 11:23:54;;;;;;;9.58;4.35;;;;;;;6.50;50.60;100107.66;1755685;81;20952;-67
2022/02/06 11:26:27;;;;;;;10.68;4.70;;;;;;;6.55;50.54;100097.14;1755707;81;21147;-67
2022/02/06 11:28:55;;;;;;;9.13;4.92;;;;;;;6.55;49.99;100102.45;1755406;81;21134;-67
2022/02/06 11:31:22;;;;;;;10.55;4.60;;;;;;;6.49;50.12;100098.90;1755752;81;21051;-67
2022/02/06 11:33:49;;;;;;;8.70;4.53;;;;;;;6.44;50.32;100095.34;1755488;81;21814;-67
2022/02/06 11:36:24;;;;;;;9.05;5.00;;;;;;;6.40;50.56;100098.20;1755798;81;21015;-67
2022/02/06 11:45:13;;;;;;;11.95;5.47;;;;;;;6.25;50.91;100096.92;1783543;80;21035;-67
2022/02/06 11:47:49;;;;;;;7.65;4.60;;;;;;;6.14;51.30;100089.81;1782942;80;21557;-67
2022/02/06 11:50:15;;;;;;;10.65;5.60;;;;;;;6.06;51.63;100090.22;1782660;80;21463;-67
2022/02/06 11:53:04;;;;;;;9.45;5.37;;;;;;;5.99;51.92;100080.26;1780247;80;21161;-67
2022/02/06 11:55:44;;;;;;;11.03;5.33;;;;;;;5.94;52.22;100098.21;1783165;80;21097;-67
2022/02/06 11:58:26;;;;;;;9.50;5.92;;;;;;;5.90;52.55;100089.10;1783243;80;20964;-66
2022/02/06 12:01:13;;;;;;;11.40;5.55;;;;;;;5.90;52.77;100073.20;1783316;80;21108;-67
2022/02/06 12:04:15;;;;;;;10.68;5.97;;;;;;;5.94;52.86;100079.66;1783405;80;21446;-66
2022/02/06 12:06:52;;;;;;;9.50;5.42;;;;;;;6.04;52.96;100080.36;1783392;80;21149;-66
2022/02/06 12:09:29;;;;;;;11.25;5.87;;;;;;;6.17;52.73;100072.10;1782959;80;21090;-67
2022/02/06 12:12:09;;;;;;;12.07;6.17;;;;;;;6.21;52.53;100075.88;1777185;79;21020;-67
2022/02/06 12:14:43;;;;;;;12.03;5.57;;;;;;;6.18;52.35;100079.00;1635394;79;10000034;-67
2022/02/06 12:17:36;;;;;;;10.80;5.37;;;;;;;6.17;52.33;100068.66;1773706;80;22914;-67
2022/02/06 12:20:13;;;;;;;10.10;5.53;;;;;;;6.15;52.55;100076.83;1743060;81;21052;-66
2022/02/06 12:22:51;;;;;;;9.20;5.50;;;;;;;6.20;52.55;100072.95;1761761;80;21038;-66
2022/02/06 12:25:34;;;;;;;8.80;5.55;;;;;;;6.28;52.62;100075.20;1758107;79;21589;-70
2022/02/06 12:28:24;;;;;;;10.05;5.22;;;;;;;6.37;52.45;100069.51;1752372;80;21240;-68
2022/02/06 12:31:01;;;;;;;10.78;5.53;;;;;;;6.44;52.08;100074.92;1736084;81;21565;-68
2022/02/06 12:34:01;;;;;;;;;;;;;;;;;;;;;
2022/02/06 12:39:22;;;;;;;12.70;6.40;;;;;;;6.56;52.27;100065.56;1817862;78;21061;-67
2022/02/06 12:41:49;;;;;;;10.88;6.60;;;;;;;6.62;51.90;100062.48;1820046;78;21023;-68
2022/02/06 12:44:16;;;;;;;13.10;6.67;;;;;;;6.63;51.63;100060.89;1819740;78;21486;-68
2022/02/06 12:46:49;;;;;;;11.78;5.87;;;;;;;6.60;51.61;100058.73;1819692;78;21034;-67
2022/02/06 12:49:20;;;;;;;12.95;6.60;;;;;;;6.56;51.53;100062.39;1789202;77;21029;-67
2022/02/06 12:51:44;;;;;;;12.98;6.37;;;;;;;6.39;51.59;100039.05;1796518;77;21026;-68
2022/02/06 12:54:17;;;;;;;10.43;5.72;;;;;;;6.24;52.07;100053.39;1815188;78;21530;-68
2022/02/06 12:56:44;;;;;;;11.65;6.65;;;;;;;6.14;52.34;100043.41;1816851;78;21570;-69
2022/02/06 12:59:13;;;;;;;11.10;6.28;;;;;;;6.00;52.68;100046.90;1798053;78;21011;-68
2022/02/06 13:01:44;;;;;;;11.90;5.85;;;;;;;5.94;53.04;100049.17;1819989;78;21073;-68
2022/02/06 13:04:13;;;;;;;;;;;;;;;5.91;53.38;100048.30;1804546;77;21564;-68
2022/02/06 13:06:44;;;;;;;9.85;6.08;;;;;;;5.89;53.53;100043.77;1819728;78;20188;-69
2022/02/06 13:09:25;;;;;;;11.25;6.47;;;;;;;5.84;53.78;100043.66;1792057;78;21129;-68
2022/02/06 13:12:00;;;;;;;10.98;6.03;;;;;;;5.77;53.93;100044.34;1814149;78;20964;-69
2022/02/06 13:20:28;;;;;;;12.35;6.95;;;;;;;5.49;54.83;100045.13;1819961;78;20987;-69
2022/02/06 13:38:50;;;;;;;14.50;7.33;;;;;;;5.44;55.53;100035.25;1802277;78;21034;-66
2022/02/06 13:41:16;;;;;;;12.20;6.42;;;;;;;5.47;55.34;100037.95;1810702;78;21079;-67
2022/02/06 13:43:42;;;;;;;11.88;6.20;;;;;;;5.50;55.31;100028.22;1816828;78;21062;-66
2022/02/06 13:46:18;;;;;;;9.33;6.50;;;;;;;5.51;55.13;100021.87;1798792;78;21759;-67
2022/02/06 13:48:48;;;;;;;8.98;6.72;;;;;;;5.50;55.26;100030.86;1815402;78;21798;-66
2022/02/06 13:51:32;;;;;;;11.78;6.95;;;;;;;5.49;55.25;100041.95;1822292;78;20980;-68
2022/02/06 13:54:02;;;;;;;12.68;7.47;;;;;;;5.51;55.29;100032.46;1797181;77;21498;-67
2022/02/06 13:56:31;;;;;;;;;;;;;;;5.50;55.28;100028.22;1819779;78;20956;-67
2022/02/06 13:59:06;;;;;;;10.60;6.67;;;;;;;5.49;55.34;100029.23;1821219;78;20138;-66
2022/02/06 14:01:45;;;;;;;11.18;6.65;;;;;;;5.52;55.46;100024.79;1817062;78;21970;-66
2022/02/06 14:04:31;;;;;;;11.53;6.53;;;;;;;5.56;55.35;100022.77;1789425;80;20965;-67
2022/02/06 14:07:10;;;;;;;12.30;7.00;;;;;;;5.53;55.18;100023.25;1821611;78;21043;-66
2022/02/06 14:12:16;;;;;;;8.63;6.30;;;;;;;5.54;55.23;100028.81;1819935;77;21375;-66
2022/02/06 14:14:56;;;;;;;12.65;6.55;;;;;;;5.56;54.94;100037.84;1822016;78;21131;-67
2022/02/06 14:17:30;;;;;;;9.40;6.20;;;;;;;5.52;55.03;100033.54;1788216;77;21102;-67
2022/02/06 14:20:20;;;;;;;10.45;6.30;;;;;;;5.49;54.93;100036.66;1793294;77;21004;-66
2022/02/06 14:22:55;;;;;;;9.53;5.90;;;;;;;5.43;54.98;100051.36;1794424;78;21078;-67
2022/02/06 14:25:35;;;;;;;11.25;5.65;;;;;;;5.33;55.01;100046.66;1813071;78;21029;-67
2022/02/06 14:28:24;;;;;;;10.28;6.10;;;;;;;5.22;55.11;100052.28;1810377;78;21096;-67
2022/02/06 14:30:52;;;;;;;9.70;5.87;;;;;;;5.08;55.28;100043.80;1818428;77;21117;-66